Aviation Digital Data Service (ADDS)

Output produced by METARs form (2202 UTC 23 April 2019)
found at http://www.aviationweather.gov/metar/data/
 
TAF EGPA 232005Z 2321/2406 14015KT 9999 FEW010 
     TEMPO 2321/2406 14020G30KT 8000